createdAt,value
2022-12-01T00:01:16.896Z,26.63
2022-12-01T00:03:43.634Z,21.50
2022-12-01T00:06:16.289Z,20.57
2022-12-01T00:09:03.060Z,15.50
2022-12-01T00:11:29.988Z,9.07
2022-12-01T00:13:56.618Z,10.65
2022-12-01T00:16:27.266Z,9.10
2022-12-01T00:18:54.488Z,8.07
2022-12-01T00:21:23.308Z,3.67
2022-12-01T00:23:52.737Z,4.20
2022-12-01T00:26:21.504Z,3.50
2022-12-01T00:28:56.962Z,3.15
2022-12-01T00:31:24.219Z,9.75
2022-12-01T00:33:51.102Z,11.97
2022-12-01T00:36:18.176Z,22.20
2022-12-01T00:38:45.363Z,17.77
2022-12-01T00:41:12.592Z,15.10
2022-12-01T00:43:39.883Z,10.83
2022-12-01T00:46:06.823Z,6.47
2022-12-01T00:48:33.841Z,11.17
2022-12-01T00:51:00.640Z,7.75
2022-12-01T00:53:27.393Z,7.97
2022-12-01T00:55:54.752Z,6.43
2022-12-01T00:58:23.126Z,7.00
2022-12-01T01:00:56.615Z,6.43
2022-12-01T01:03:23.269Z,9.18
2022-12-01T01:05:50.372Z,18.75
2022-12-01T01:08:16.980Z,14.45
2022-12-01T01:10:46.133Z,16.77
2022-12-01T01:13:17.613Z,12.52
2022-12-01T01:15:44.576Z,13.10
2022-12-01T01:18:12.566Z,9.95
2022-12-01T01:20:39.386Z,16.37
2022-12-01T01:23:06.249Z,6.43
2022-12-01T01:25:33.656Z,4.23
2022-12-01T01:28:00.692Z,3.47
2022-12-01T01:30:27.558Z,2.30
2022-12-01T01:32:54.289Z,3.08
2022-12-01T01:35:21.418Z,5.90
2022-12-01T01:37:48.153Z,13.75
2022-12-01T01:40:14.925Z,15.48
2022-12-01T01:42:41.603Z,12.02
2022-12-01T01:45:29.698Z,5.85
2022-12-01T01:47:59.830Z,5.90
2022-12-01T01:50:28.866Z,4.82
2022-12-01T01:53:01.369Z,4.10
2022-12-01T01:55:30.269Z,5.38
2022-12-01T01:57:57.412Z,11.20
2022-12-01T02:00:24.297Z,4.53
2022-12-01T02:02:52.566Z,4.32
2022-12-01T02:05:32.318Z,3.47
2022-12-01T02:08:00.376Z,3.75
2022-12-01T02:11:13.839Z,4.68
2022-12-01T02:13:40.482Z,4.82
2022-12-01T02:16:15.973Z,4.20
2022-12-01T02:19:23.519Z,4.10
2022-12-01T02:21:59.451Z,5.60
2022-12-01T02:24:26.134Z,4.05
2022-12-01T02:27:16.089Z,3.28
2022-12-01T02:30:15.100Z,3.55
2022-12-01T02:33:11.016Z,3.88
2022-12-01T02:35:47.764Z,3.83
2022-12-01T02:38:19.941Z,3.15
2022-12-01T02:41:10.419Z,2.72
2022-12-01T02:44:00.141Z,3.30
2022-12-01T02:46:35.645Z,3.83
2022-12-01T02:49:10.132Z,6.13
2022-12-01T02:51:40.228Z,5.03
2022-12-01T02:54:08.039Z,4.57
2022-12-01T02:56:34.744Z,5.15
2022-12-01T02:59:01.390Z,4.25
2022-12-01T03:01:32.935Z,6.20
2022-12-01T03:04:37.890Z,4.10
2022-12-01T03:07:37.171Z,2.70
2022-12-01T03:10:12.846Z,4.75
2022-12-01T03:12:42.429Z,8.05
2022-12-01T03:15:34.155Z,8.75
2022-12-01T03:18:22.056Z,6.05
2022-12-01T03:21:06.374Z,7.07
2022-12-01T03:23:37.899Z,6.35
2022-12-01T03:26:07.581Z,2.38
2022-12-01T03:28:39.885Z,4.03
2022-12-01T03:31:11.988Z,3.30
2022-12-01T03:33:45.921Z,6.45
2022-12-01T03:36:22.880Z,10.10
2022-12-01T03:38:55.771Z,8.23
2022-12-01T03:41:26.474Z,8.75
2022-12-01T03:44:00.808Z,9.82
2022-12-01T03:46:45.456Z,6.97
2022-12-01T03:49:13.960Z,7.03
2022-12-01T03:51:58.801Z,7.22
2022-12-01T03:54:33.952Z,8.85
2022-12-01T03:57:05.663Z,8.10
2022-12-01T03:59:36.084Z,9.18
2022-12-01T04:02:03.170Z,13.35
2022-12-01T04:04:29.968Z,15.82
2022-12-01T04:06:56.557Z,16.33
2022-12-01T04:09:23.227Z,18.63
2022-12-01T04:12:08.455Z,16.02
2022-12-01T04:14:35.062Z,13.43
2022-12-01T04:17:01.767Z,10.80
2022-12-01T04:19:28.425Z,10.02
2022-12-01T04:21:55.181Z,12.25
2022-12-01T04:24:21.808Z,9.93
2022-12-01T04:26:48.477Z,8.10
2022-12-01T04:29:15.180Z,14.68
2022-12-01T04:31:41.901Z,20.90
2022-12-01T04:34:10.381Z,22.10
2022-12-01T04:36:37.060Z,17.02
2022-12-01T04:39:04.091Z,13.93
2022-12-01T04:41:30.816Z,11.75
2022-12-01T04:43:57.552Z,12.27
2022-12-01T04:46:25.141Z,11.27
2022-12-01T04:48:52.182Z,10.95
2022-12-01T04:51:19.502Z,10.13
2022-12-01T04:53:46.164Z,14.35
2022-12-01T04:56:12.803Z,13.57
2022-12-01T04:58:39.680Z,15.85
2022-12-01T05:01:12.501Z,27.40
2022-12-01T05:03:41.116Z,28.77
2022-12-01T05:06:14.202Z,11.07
2022-12-01T05:08:41.028Z,15.88
2022-12-01T05:11:09.011Z,9.68
2022-12-01T05:13:40.366Z,6.85
2022-12-01T05:16:12.520Z,8.10
2022-12-01T05:18:40.402Z,6.70
2022-12-01T05:21:09.543Z,6.28
2022-12-01T05:23:37.869Z,6.35
2022-12-01T05:26:06.654Z,18.08
2022-12-01T05:28:33.659Z,22.48
2022-12-01T05:31:00.814Z,22.55
2022-12-01T05:33:28.920Z,24.75
2022-12-01T05:35:55.983Z,25.38
2022-12-01T05:38:22.907Z,15.73
2022-12-01T05:40:54.022Z,17.63
2022-12-01T05:43:27.188Z,21.08
2022-12-01T05:45:56.689Z,24.17
2022-12-01T05:48:23.736Z,23.08
2022-12-01T05:50:50.544Z,21.77
2022-12-01T05:53:17.746Z,27.23
2022-12-01T05:55:44.696Z,27.08
2022-12-01T05:58:12.567Z,25.52
2022-12-01T06:00:45.279Z,28.08
2022-12-01T06:03:12.787Z,19.58
2022-12-01T06:05:39.604Z,14.80
2022-12-01T06:08:06.289Z,13.50
2022-12-01T06:10:33.249Z,14.13
2022-12-01T06:12:59.932Z,12.43
2022-12-01T06:15:27.312Z,11.50
2022-12-01T06:17:54.164Z,9.32
2022-12-01T06:20:20.902Z,9.18
2022-12-01T06:22:47.689Z,6.82
2022-12-01T06:25:14.336Z,9.88
2022-12-01T06:27:40.961Z,10.50
2022-12-01T06:30:08.953Z,9.82
2022-12-01T06:32:36.041Z,38.97
2022-12-01T06:35:02.888Z,22.33
2022-12-01T06:37:29.621Z,22.75
2022-12-01T06:39:56.497Z,26.42
2022-12-01T06:42:23.306Z,23.20
2022-12-01T06:44:49.982Z,20.75
2022-12-01T06:47:16.820Z,25.67
2022-12-01T06:49:44.131Z,21.52
2022-12-01T06:52:10.790Z,21.35
2022-12-01T06:54:37.718Z,28.73
2022-12-01T06:57:04.677Z,28.83
2022-12-01T06:59:31.693Z,27.58
2022-12-01T07:01:58.980Z,26.25
2022-12-01T07:04:25.809Z,22.10
2022-12-01T07:06:52.488Z,22.60
2022-12-01T07:09:19.296Z,20.77
2022-12-01T07:11:46.457Z,17.35
2022-12-01T07:14:25.367Z,18.50
2022-12-01T07:16:52.491Z,19.65
2022-12-01T07:19:19.507Z,24.40
2022-12-01T07:21:46.307Z,21.17
2022-12-01T07:24:12.937Z,18.10
2022-12-01T07:26:45.164Z,24.95
2022-12-01T07:29:12.127Z,13.93
2022-12-01T07:31:39.038Z,13.57
2022-12-01T07:34:06.406Z,15.95
2022-12-01T07:36:33.192Z,19.52
2022-12-01T07:38:59.871Z,14.05
2022-12-01T07:41:26.508Z,11.60
2022-12-01T07:43:56.256Z,10.57
2022-12-01T07:46:25.939Z,12.10
2022-12-01T07:48:54.276Z,11.82
2022-12-01T07:51:22.135Z,14.32
2022-12-01T07:53:50.575Z,21.17
2022-12-01T07:56:18.768Z,36.22
2022-12-01T07:58:45.629Z,33.40
2022-12-01T08:01:17.484Z,22.90
2022-12-01T08:03:45.391Z,28.65
2022-12-01T08:06:12.185Z,22.33
2022-12-01T08:08:41.551Z,31.30
2022-12-01T08:11:14.918Z,29.73
2022-12-01T08:13:42.158Z,16.55
2022-12-01T08:16:13.781Z,22.35
2022-12-01T08:18:41.569Z,18.50
2022-12-01T08:21:11.292Z,17.15
2022-12-01T08:23:38.163Z,18.85
2022-12-01T08:26:11.580Z,19.80
2022-12-01T08:28:41.867Z,24.77
2022-12-01T08:31:12.789Z,30.50
2022-12-01T08:33:39.474Z,29.55
2022-12-01T08:36:06.959Z,31.00
2022-12-01T08:38:33.821Z,31.33
2022-12-01T08:41:02.630Z,28.73
2022-12-01T08:43:55.893Z,27.83
2022-12-01T08:46:16.802Z,32.50
2022-12-01T08:48:43.747Z,29.20
2022-12-01T08:51:15.893Z,42.35
2022-12-01T08:53:45.968Z,22.42
2022-12-01T08:56:18.103Z,24.23
2022-12-01T08:58:44.929Z,28.27
2022-12-01T09:01:14.675Z,85.25
2022-12-01T09:03:43.183Z,28.30
2022-12-01T09:06:16.398Z,23.63
2022-12-01T09:08:44.059Z,24.88
2022-12-01T09:11:13.953Z,23.98
2022-12-01T09:13:41.680Z,30.73
2022-12-01T09:16:12.281Z,25.73
2022-12-01T09:18:39.864Z,23.27
2022-12-01T09:21:18.044Z,22.63
2022-12-01T09:23:45.631Z,22.75
2022-12-01T09:26:18.104Z,28.73
2022-12-01T09:28:46.024Z,22.30
2022-12-01T09:31:13.905Z,24.15
2022-12-01T09:33:40.834Z,16.00
2022-12-01T09:36:09.021Z,18.30
2022-12-01T09:38:36.934Z,24.73
2022-12-01T09:41:20.257Z,27.98
2022-12-01T09:44:14.055Z,25.08
2022-12-01T09:47:12.361Z,28.60
2022-12-01T09:49:47.966Z,31.30
2022-12-01T09:52:17.264Z,34.70
2022-12-01T09:54:43.943Z,26.40
2022-12-01T09:57:35.465Z,24.85
2022-12-01T10:00:13.207Z,26.50
2022-12-01T10:02:52.977Z,18.75
2022-12-01T10:05:22.649Z,18.60
2022-12-01T10:08:05.235Z,18.73
2022-12-01T10:10:38.202Z,13.27
2022-12-01T10:13:18.032Z,13.00
2022-12-01T10:15:53.863Z,7.43
2022-12-01T10:18:49.820Z,10.43
2022-12-01T10:21:42.527Z,12.75
2022-12-01T10:24:27.196Z,12.18
2022-12-01T10:27:31.508Z,7.10
2022-12-01T10:30:04.135Z,12.90
2022-12-01T10:32:51.368Z,8.20
2022-12-01T10:35:20.964Z,7.87
2022-12-01T10:37:56.331Z,5.22
2022-12-01T10:40:24.269Z,5.25
2022-12-01T10:42:51.412Z,9.98
2022-12-01T10:45:27.226Z,39.72
2022-12-01T10:48:20.000Z,39.38
2022-12-01T10:50:53.953Z,24.90
2022-12-01T10:53:23.701Z,48.77
2022-12-01T10:56:00.123Z,11.73
2022-12-01T10:58:27.170Z,18.67
2022-12-01T11:01:01.688Z,14.05
2022-12-01T11:03:32.432Z,21.02
2022-12-01T11:06:03.336Z,25.77
2022-12-01T11:08:55.472Z,15.93
2022-12-01T11:11:37.875Z,9.52
2022-12-01T11:14:20.526Z,11.75
2022-12-01T11:16:50.167Z,15.73
2022-12-01T11:19:34.988Z,30.95
2022-12-01T11:22:19.139Z,30.77
2022-12-01T11:24:58.295Z,19.52
2022-12-01T11:27:28.888Z,13.47
2022-12-01T11:30:00.377Z,15.30
2022-12-01T11:32:32.857Z,14.67
2022-12-01T11:35:21.404Z,11.20
2022-12-01T11:38:20.973Z,10.53
2022-12-01T11:40:51.329Z,8.80
2022-12-01T11:43:30.491Z,11.50
2022-12-01T11:45:59.890Z,10.67
2022-12-01T11:48:29.434Z,11.93
2022-12-01T11:51:04.323Z,13.35
2022-12-01T11:56:19.604Z,13.93
2022-12-01T11:58:48.876Z,18.10
2022-12-01T12:01:40.449Z,19.08
2022-12-01T12:04:25.143Z,22.35
2022-12-01T12:07:02.377Z,24.90
2022-12-01T12:09:54.097Z,27.08
2022-12-01T12:12:32.957Z,18.07
2022-12-01T12:15:31.702Z,19.05
2022-12-01T12:18:04.366Z,18.00
2022-12-01T12:20:47.767Z,16.55
2022-12-01T12:23:45.017Z,16.10
2022-12-01T12:26:27.116Z,17.55
2022-12-01T12:29:00.789Z,20.77
2022-12-01T12:32:27.585Z,17.20
2022-12-01T12:35:38.536Z,26.13
2022-12-01T12:38:32.967Z,13.00
2022-12-01T12:41:29.580Z,11.77
2022-12-01T12:44:08.425Z,31.17
2022-12-01T12:47:01.502Z,30.73
2022-12-01T12:49:50.042Z,25.27
2022-12-01T12:52:31.222Z,22.30
2022-12-01T12:55:03.768Z,25.07
2022-12-01T12:57:37.350Z,19.67
2022-12-01T13:00:13.360Z,19.70
2022-12-01T13:02:45.323Z,24.23
2022-12-01T13:05:35.759Z,41.57
2022-12-01T13:08:16.068Z,31.13
2022-12-01T13:11:21.388Z,24.20
2022-12-01T13:13:53.966Z,22.02
2022-12-01T13:16:32.614Z,22.47
2022-12-01T13:19:16.700Z,19.60
2022-12-01T13:21:47.002Z,17.37
2022-12-01T13:24:23.409Z,17.40
2022-12-01T13:26:56.177Z,17.67
2022-12-01T13:29:25.107Z,16.27
2022-12-01T13:31:54.057Z,17.97
2022-12-01T13:34:28.900Z,18.60
2022-12-01T13:36:56.429Z,15.10
2022-12-01T13:39:29.511Z,15.50
2022-12-01T13:42:21.658Z,19.30
2022-12-01T13:44:51.291Z,17.07
2022-12-01T13:47:21.325Z,20.87
2022-12-01T13:49:50.737Z,19.48
2022-12-01T13:52:28.953Z,20.50
2022-12-01T13:55:04.378Z,18.20
2022-12-01T13:57:33.794Z,18.83
2022-12-01T14:00:03.487Z,16.20
2022-12-01T14:02:34.737Z,14.30
2022-12-01T14:05:23.322Z,15.27
2022-12-01T14:07:52.759Z,17.20
2022-12-01T14:10:27.171Z,18.52
2022-12-01T14:12:57.844Z,23.02
2022-12-01T14:15:35.822Z,23.33
2022-12-01T14:18:05.413Z,24.00
2022-12-01T14:20:37.414Z,22.50
2022-12-01T14:23:14.204Z,22.00
2022-12-01T14:25:42.754Z,16.67
2022-12-01T14:28:16.950Z,19.20
2022-12-01T14:30:46.252Z,24.15
2022-12-01T14:33:51.403Z,23.65
2022-12-01T14:36:23.742Z,27.77
2022-12-01T14:38:59.653Z,31.83
2022-12-01T14:41:29.347Z,30.80
2022-12-01T14:44:05.533Z,32.70
2022-12-01T14:46:43.195Z,32.30
2022-12-01T14:49:15.675Z,39.15
2022-12-01T14:51:47.322Z,40.10
2022-12-01T14:54:32.834Z,39.50
2022-12-01T14:57:07.397Z,39.47
2022-12-01T14:59:36.012Z,38.97
2022-12-01T15:02:09.136Z,42.13
2022-12-01T15:05:07.788Z,37.60
2022-12-01T15:07:54.310Z,44.63
2022-12-01T15:10:35.303Z,41.53
2022-12-01T15:13:22.564Z,117.90
2022-12-01T15:15:55.492Z,85.95
2022-12-01T15:18:26.924Z,42.10
2022-12-01T15:21:05.345Z,40.77
2022-12-01T15:23:32.025Z,47.63
2022-12-01T15:25:58.816Z,45.97
2022-12-01T15:28:33.804Z,52.13
2022-12-01T15:33:37.828Z,37.33
2022-12-01T15:36:06.769Z,37.37
2022-12-01T15:38:36.934Z,29.67
2022-12-01T15:43:59.032Z,44.43
2022-12-01T15:46:31.647Z,47.77
2022-12-01T15:49:27.408Z,40.60
2022-12-01T15:51:54.929Z,39.23
2022-12-01T15:54:25.660Z,69.93
2022-12-01T15:56:55.048Z,40.33
2022-12-01T15:59:38.997Z,54.73
2022-12-01T16:02:15.904Z,84.78
2022-12-01T16:04:43.678Z,107.03
2022-12-01T16:07:11.588Z,80.30
2022-12-01T16:09:42.585Z,65.23
2022-12-01T16:12:09.254Z,52.93
2022-12-01T16:14:36.847Z,47.63
2022-12-01T16:17:05.008Z,48.63
2022-12-01T16:19:33.771Z,45.60
2022-12-01T16:22:12.664Z,40.20
2022-12-01T16:25:06.559Z,52.40
2022-12-01T16:27:40.984Z,48.57
2022-12-01T16:30:22.114Z,58.73
2022-12-01T16:32:52.627Z,51.70
2022-12-01T16:35:31.508Z,58.37
2022-12-01T16:37:58.702Z,66.33
2022-12-01T16:40:26.381Z,43.40
2022-12-01T16:42:53.103Z,50.93
2022-12-01T16:45:20.494Z,49.07
2022-12-01T16:47:48.618Z,37.30
2022-12-01T16:50:17.708Z,48.33
2022-12-01T16:52:45.740Z,40.87
2022-12-01T16:55:46.608Z,37.03
2022-12-01T16:58:13.472Z,36.97
2022-12-01T17:00:40.280Z,29.60
2022-12-01T17:03:07.302Z,34.87
2022-12-01T17:05:34.608Z,37.77
2022-12-01T17:08:01.421Z,38.80
2022-12-01T17:10:28.112Z,45.73
2022-12-01T17:12:54.772Z,48.67
2022-12-01T17:15:21.532Z,56.67
2022-12-01T17:17:48.555Z,53.67
2022-12-01T17:20:15.695Z,51.47
2022-12-01T17:22:42.323Z,49.47
2022-12-01T17:25:09.888Z,41.83
2022-12-01T17:27:37.739Z,46.17
2022-12-01T17:30:06.468Z,38.50
2022-12-01T17:32:33.183Z,35.73
2022-12-01T17:34:59.795Z,37.77
2022-12-01T17:37:28.066Z,34.57
2022-12-01T17:39:54.885Z,35.10
2022-12-01T17:42:21.885Z,34.03
2022-12-01T17:44:48.952Z,33.70
2022-12-01T17:47:16.015Z,49.23
2022-12-01T17:49:42.735Z,45.53
2022-12-01T17:52:09.448Z,39.70
2022-12-01T17:54:36.273Z,38.67
2022-12-01T17:57:02.984Z,32.33
2022-12-01T17:59:30.175Z,37.00
2022-12-01T18:01:56.976Z,28.87
2022-12-01T18:04:23.604Z,25.43
2022-12-01T18:06:54.100Z,22.97
2022-12-01T18:09:21.556Z,34.63
2022-12-01T18:11:48.987Z,28.73
2022-12-01T18:14:17.922Z,26.77
2022-12-01T18:16:45.501Z,37.20
2022-12-01T18:19:12.843Z,32.93
2022-12-01T18:21:40.352Z,36.13
2022-12-01T18:24:09.377Z,27.50
2022-12-01T18:26:37.904Z,32.63
2022-12-01T18:29:07.883Z,24.70
2022-12-01T18:31:35.024Z,22.20
2022-12-01T18:34:06.846Z,23.27
2022-12-01T18:36:35.484Z,23.27
2022-12-01T18:39:04.393Z,22.70
2022-12-01T18:41:31.820Z,22.87
2022-12-01T18:43:58.674Z,23.73
2022-12-01T18:46:25.621Z,23.60
2022-12-01T18:49:03.184Z,25.63
2022-12-01T18:51:32.023Z,23.87
2022-12-01T18:54:00.460Z,21.47
2022-12-01T18:56:28.029Z,19.77
2022-12-01T18:58:56.206Z,21.50
2022-12-01T19:01:28.678Z,28.53
2022-12-01T19:03:56.516Z,21.80
2022-12-01T19:06:24.428Z,21.80
2022-12-01T19:08:52.417Z,22.53
2022-12-01T19:11:19.867Z,26.37
2022-12-01T19:13:47.407Z,18.10
2022-12-01T19:16:16.823Z,16.33
2022-12-01T19:18:43.559Z,20.70
2022-12-01T19:21:12.240Z,20.77
2022-12-01T19:23:39.250Z,19.53
2022-12-01T19:26:07.815Z,20.07
2022-12-01T19:28:36.197Z,20.23
2022-12-01T19:31:07.995Z,24.57
2022-12-01T19:33:35.016Z,28.37
2022-12-01T19:36:11.007Z,23.87
2022-12-01T19:38:38.653Z,41.80
2022-12-01T19:41:06.529Z,32.50
2022-12-01T19:43:34.701Z,49.67
2022-12-01T19:46:21.827Z,40.77
2022-12-01T19:48:56.135Z,30.80
2022-12-01T19:51:31.864Z,29.73
2022-12-01T19:53:58.777Z,21.67
2022-12-01T19:56:25.512Z,18.30
2022-12-01T19:58:52.308Z,16.90
2022-12-01T20:01:20.178Z,18.40
2022-12-01T20:03:49.304Z,17.43
2022-12-01T20:06:24.643Z,16.17
2022-12-01T20:08:52.413Z,13.50
2022-12-01T20:11:19.075Z,13.93
2022-12-01T20:13:47.301Z,16.33
2022-12-01T20:16:19.663Z,16.43
2022-12-01T20:18:47.447Z,15.77
2022-12-01T20:21:17.647Z,17.50
2022-12-01T20:23:49.824Z,14.20
2022-12-01T20:26:18.790Z,13.30
2022-12-01T20:28:47.822Z,15.43
2022-12-01T20:31:21.281Z,18.47
2022-12-01T20:33:49.214Z,13.57
2022-12-01T20:36:16.857Z,11.33
2022-12-01T20:38:43.739Z,12.17
2022-12-01T20:41:11.194Z,18.17
2022-12-01T20:43:38.200Z,16.03
2022-12-01T20:46:05.615Z,14.87
2022-12-01T20:48:33.010Z,13.57
2022-12-01T20:51:01.395Z,9.37
2022-12-01T20:53:28.224Z,9.03
2022-12-01T20:55:55.687Z,8.80
2022-12-01T20:58:22.684Z,9.90
2022-12-01T21:00:49.499Z,10.80
2022-12-01T21:03:16.252Z,11.80
2022-12-01T21:05:43.966Z,14.20
2022-12-01T21:08:13.035Z,14.13
2022-12-01T21:10:43.767Z,20.87
2022-12-01T21:13:41.109Z,17.63
2022-12-01T21:16:19.160Z,15.13
2022-12-01T21:18:55.944Z,11.57
2022-12-01T21:21:31.239Z,10.87
2022-12-01T21:24:17.164Z,13.43
2022-12-01T21:26:52.918Z,12.73
2022-12-01T21:29:22.265Z,11.30
2022-12-01T21:31:52.179Z,11.63
2022-12-01T21:34:24.668Z,12.00
2022-12-01T21:36:57.639Z,11.03
2022-12-01T21:39:26.517Z,10.93
2022-12-01T21:41:56.297Z,12.17
2022-12-01T21:44:30.206Z,11.00
2022-12-01T21:46:58.208Z,12.53
2022-12-01T21:49:45.251Z,15.67
2022-12-01T21:52:23.541Z,13.00
2022-12-01T21:54:51.608Z,13.30
2022-12-01T21:57:43.007Z,17.07
2022-12-01T22:00:25.820Z,13.10
2022-12-01T22:02:58.673Z,14.00
2022-12-01T22:05:37.637Z,19.30
2022-12-01T22:08:25.664Z,14.87
2022-12-01T22:10:55.404Z,13.77
2022-12-01T22:13:27.374Z,14.10
2022-12-01T22:15:55.348Z,12.60
2022-12-01T22:18:32.442Z,13.23
2022-12-01T22:21:01.117Z,16.77
2022-12-01T22:23:33.994Z,16.27
2022-12-01T22:26:01.264Z,13.67
2022-12-01T22:28:28.112Z,11.73
2022-12-01T22:30:55.063Z,21.27
2022-12-01T22:33:24.307Z,15.47
2022-12-01T22:35:52.914Z,11.93
2022-12-01T22:38:21.581Z,12.33
2022-12-01T22:40:48.143Z,12.93
2022-12-01T22:43:18.092Z,12.03
2022-12-01T22:45:50.696Z,11.97
2022-12-01T22:48:40.347Z,10.93
2022-12-01T22:51:12.936Z,12.60
2022-12-01T22:53:41.093Z,13.50
2022-12-01T22:56:20.712Z,11.50
2022-12-01T22:58:47.473Z,10.53
2022-12-01T23:01:24.192Z,11.33
2022-12-01T23:03:54.581Z,11.03
2022-12-01T23:07:00.360Z,12.50
2022-12-01T23:09:37.858Z,10.35
2022-12-01T23:12:22.697Z,9.33
2022-12-01T23:14:53.427Z,10.93
2022-12-01T23:17:26.097Z,9.70
2022-12-01T23:20:15.858Z,9.10
2022-12-01T23:22:42.567Z,9.37
2022-12-01T23:25:15.154Z,9.83
2022-12-01T23:27:44.455Z,9.50
2022-12-01T23:30:13.125Z,8.17
2022-12-01T23:32:39.989Z,12.87
2022-12-01T23:35:13.873Z,12.47
2022-12-01T23:37:43.788Z,13.52
2022-12-01T23:40:33.122Z,14.52
2022-12-01T23:43:13.011Z,13.33
2022-12-01T23:45:39.738Z,12.53
2022-12-01T23:48:17.195Z,9.30
2022-12-01T23:50:43.943Z,8.27
2022-12-01T23:53:24.575Z,7.63
2022-12-01T23:55:51.608Z,7.80
2022-12-01T23:58:18.212Z,7.53
